Time;durP1;ratioP1;P1;durP2;ratioP2;P2;SDS_P1;SDS_P2;PMS_P1;PMS_P2;Temp;Humidity;BMP_temperature;BMP_pressure;BME280_temperature;BME280_humidity;BME280_pressure;Samples;Min_cycle;Max_cycle;Signal;HPM_P1;HPM_P2
2021/03/01 00:00:33;;;;;;;9.00;5.30;;;14.60;78.70;;;;;;5066560;28;20492;-49
2021/03/01 00:03:04;;;;;;;7.17;4.87;;;14.50;79.10;;;;;;5076503;28;20444;-51
2021/03/01 00:05:34;;;;;;;8.90;6.20;;;14.50;79.30;;;;;;5069954;28;20449;-46
2021/03/01 00:08:05;;;;;;;6.13;4.50;;;14.60;76.10;;;;;;5079126;28;20525;-48
2021/03/01 00:10:35;;;;;;;7.87;5.20;;;14.40;80.70;;;;;;5081150;28;20456;-50
2021/03/01 00:13:05;;;;;;;10.50;5.40;;;14.50;78.40;;;;;;5080161;28;20515;-49
2021/03/01 00:15:37;;;;;;;8.37;6.00;;;14.50;79.00;;;;;;5077304;28;20479;-48
2021/03/01 00:18:08;;;;;;;8.90;5.33;;;14.50;82.60;;;;;;5078174;28;20547;-51
2021/03/01 00:20:39;;;;;;;6.90;4.87;;;14.40;82.30;;;;;;5075495;28;20502;-49
2021/03/01 00:23:12;;;;;;;6.50;4.70;;;14.40;78.10;;;;;;5069744;28;20444;-50
2021/03/01 00:25:43;;;;;;;6.80;5.17;;;14.40;80.40;;;;;;5074411;28;20456;-49
2021/03/01 00:28:13;;;;;;;8.77;4.93;;;14.30;83.70;;;;;;5066351;28;20455;-49
2021/03/01 00:30:44;;;;;;;6.23;4.60;;;14.20;82.20;;;;;;5075676;28;20491;-49
2021/03/01 00:33:14;;;;;;;9.03;5.20;;;14.20;82.30;;;;;;5071218;28;20505;-49
2021/03/01 00:35:44;;;;;;;6.80;5.20;;;14.20;80.50;;;;;;5079977;28;20770;-49
2021/03/01 00:38:15;;;;;;;7.07;4.77;;;14.30;79.60;;;;;;5070291;28;20475;-49
2021/03/01 00:40:45;;;;;;;8.00;4.90;;;14.30;78.30;;;;;;5065269;28;20488;-49
2021/03/01 00:43:15;;;;;;;7.13;4.40;;;14.30;78.90;;;;;;5069755;28;20452;-47
2021/03/01 00:45:46;;;;;;;7.60;4.50;;;14.20;78.90;;;;;;5070976;28;20456;-49
2021/03/01 00:48:16;;;;;;;6.10;4.63;;;14.10;79.30;;;;;;5065716;28;20963;-47
2021/03/01 00:50:46;;;;;;;7.60;4.80;;;14.00;80.20;;;;;;5078522;28;20444;-48
2021/03/01 00:53:25;;;;;;;7.53;4.87;;;13.80;81.30;;;;;;5071641;28;20435;-50
2021/03/01 00:55:56;;;;;;;5.07;4.57;;;13.80;82.10;;;;;;5073720;28;20885;-52
2021/03/01 00:58:26;;;;;;;6.10;4.50;;;13.70;83.20;;;;;;5065650;28;20509;-50
2021/03/01 01:00:57;;;;;;;7.07;4.77;;;13.70;82.20;;;;;;5076773;28;20491;-51
2021/03/01 01:03:27;;;;;;;9.10;4.90;;;13.60;80.20;;;;;;5065745;28;20456;-49
2021/03/01 01:05:57;;;;;;;6.67;4.73;;;13.60;80.60;;;;;;5068028;28;20531;-51
2021/03/01 01:08:28;;;;;;;7.70;4.83;;;13.50;81.60;;;;;;5075672;28;20506;-46
2021/03/01 01:10:58;;;;;;;8.57;5.00;;;13.60;83.70;;;;;;5068610;28;20532;-49
2021/03/01 01:13:28;;;;;;;6.77;5.30;;;13.40;87.30;;;;;;5075750;28;20455;-48
2021/03/01 01:16:18;;;;;;;7.60;4.20;;;13.40;85.10;;;;;;5064652;28;20674;-51
2021/03/01 01:18:49;;;;;;;9.10;5.40;;;13.40;84.80;;;;;;5083368;28;20859;-50
2021/03/01 01:21:19;;;;;;;6.97;5.90;;;13.50;84.90;;;;;;5070941;28;20484;-50
2021/03/01 01:23:49;;;;;;;7.83;5.47;;;13.50;84.70;;;;;;5065507;28;20513;-47
2021/03/01 01:26:19;;;;;;;6.70;5.07;;;13.50;84.30;;;;;;5082239;28;20448;-50
2021/03/01 01:28:49;;;;;;;10.17;5.50;;;13.50;85.60;;;;;;5080053;28;20933;-49
2021/03/01 01:31:20;;;;;;;8.80;4.90;;;13.50;84.20;;;;;;5081090;28;20455;-50
2021/03/01 01:33:50;;;;;;;6.10;4.83;;;13.40;84.90;;;;;;5072303;28;20946;-50
2021/03/01 01:36:20;;;;;;;8.33;6.70;;;13.40;85.40;;;;;;5069978;28;20448;-49
2021/03/01 01:38:53;;;;;;;7.63;6.00;;;13.40;84.90;;;;;;5079599;28;20466;-48
2021/03/01 01:41:23;;;;;;;10.00;6.53;;;13.40;86.40;;;;;;5064665;28;20488;-50
2021/03/01 01:43:53;;;;;;;10.83;6.67;;;13.30;85.40;;;;;;5065697;28;20522;-48
2021/03/01 01:46:24;;;;;;;8.20;6.00;;;13.20;86.30;;;;;;5078452;28;20501;-48
2021/03/01 01:48:55;;;;;;;9.80;6.40;;;13.20;86.30;;;;;;5064908;28;20470;-47
2021/03/01 01:51:25;;;;;;;8.37;5.67;;;13.10;87.70;;;;;;5064388;28;20448;-50
2021/03/01 01:53:55;;;;;;;6.10;5.50;;;13.00;90.40;;;;;;5066234;28;20506;-51
2021/03/01 01:56:25;;;;;;;7.97;6.27;;;12.90;89.80;;;;;;5075380;28;20499;-50
2021/03/01 01:58:55;;;;;;;10.53;6.50;;;12.80;90.20;;;;;;5084888;28;20451;-49
2021/03/01 02:01:26;;;;;;;9.33;6.83;;;12.70;91.90;;;;;;5082256;28;21033;-48
2021/03/01 02:04:02;;;;;;;9.67;6.77;;;12.60;92.70;;;;;;5072768;28;20451;-51
2021/03/01 02:06:47;;;;;;;8.13;5.87;;;12.50;92.80;;;;;;5068068;28;20453;-51
2021/03/01 02:09:49;;;;;;;9.80;6.10;;;12.40;93.90;;;;;;5083618;28;20948;-52
2021/03/01 02:12:24;;;;;;;8.90;6.17;;;12.20;95.90;;;;;;5082141;28;20481;-49
2021/03/01 02:15:03;;;;;;;8.27;5.87;;;12.10;97.40;;;;;;5065919;28;20454;-46
2021/03/01 02:17:35;;;;;;;9.47;6.50;;;12.00;99.40;;;;;;5083345;28;20555;-50
2021/03/01 02:20:09;;;;;;;7.30;6.07;;;12.00;99.90;;;;;;5067984;28;20469;-49
2021/03/01 02:22:41;;;;;;;6.80;6.10;;;11.90;99.90;;;;;;5084287;28;20524;-50
2021/03/01 02:25:13;;;;;;;8.50;6.93;;;11.80;99.90;;;;;;5072205;28;20464;-52
2021/03/01 02:27:47;;;;;;;9.60;6.87;;;11.70;99.90;;;;;;5065376;28;20497;-51
2021/03/01 02:30:24;;;;;;;9.50;7.30;;;11.70;99.90;;;;;;5078991;28;20501;-52
2021/03/01 02:33:00;;;;;;;7.00;5.97;;;11.60;99.90;;;;;;5068782;28;20551;-50
2021/03/01 02:35:33;;;;;;;8.00;7.20;;;11.60;99.90;;;;;;5067122;28;20459;-49
2021/03/01 02:38:08;;;;;;;10.23;7.07;;;11.60;99.90;;;;;;5063995;28;20453;-48
2021/03/01 02:40:41;;;;;;;7.90;6.00;;;11.50;99.90;;;;;;5080792;28;20489;-51
2021/03/01 02:43:13;;;;;;;10.27;7.37;;;11.40;99.90;;;;;;5078203;28;20453;-50
2021/03/01 02:45:44;;;;;;;10.73;7.63;;;11.40;99.90;;;;;;5063959;28;20459;-50
2021/03/01 02:48:15;;;;;;;11.80;7.90;;;11.30;99.90;;;;;;5068900;28;20486;-49
2021/03/01 02:50:46;;;;;;;10.70;9.60;;;11.30;99.90;;;;;;5074163;28;20458;-46
2021/03/01 02:53:19;;;;;;;13.07;11.63;;;11.20;99.90;;;;;;5071179;28;20447;-51
2021/03/01 02:55:52;;;;;;;14.20;12.67;;;11.20;99.90;;;;;;5075276;28;20458;-51
2021/03/01 02:58:24;;;;;;;15.60;11.90;;;11.20;99.90;;;;;;5068047;28;21295;-48
2021/03/01 03:00:55;;;;;;;15.00;12.83;;;11.10;99.90;;;;;;5068142;28;20485;-46
2021/03/01 03:03:27;;;;;;;17.57;13.60;;;11.10;99.90;;;;;;5068480;28;20451;-50
2021/03/01 03:05:57;;;;;;;14.00;12.60;;;11.10;99.90;;;;;;5063373;28;20508;-46
2021/03/01 03:08:32;;;;;;;13.17;11.77;;;11.00;99.90;;;;;;5074223;28;20450;-48
2021/03/01 03:11:02;;;;;;;16.50;13.80;;;11.00;99.90;;;;;;5077061;28;20500;-45
2021/03/01 03:13:34;;;;;;;13.93;12.60;;;11.00;99.90;;;;;;5081099;28;20935;-46
2021/03/01 03:16:06;;;;;;;14.40;12.90;;;11.00;99.90;;;;;;5070199;28;20476;-44
2021/03/01 03:18:39;;;;;;;17.83;13.50;;;10.90;99.90;;;;;;5069559;28;20512;-46
2021/03/01 03:21:09;;;;;;;17.40;14.93;;;10.90;99.90;;;;;;5069140;28;20944;-44
2021/03/01 03:23:40;;;;;;;17.58;15.73;;;10.80;99.90;;;;;;5081709;28;20218;-49
2021/03/01 03:26:13;;;;;;;21.10;18.13;;;10.90;99.90;;;;;;5065652;28;20212;-50
2021/03/01 03:28:43;;;;;;;15.53;13.77;;;10.80;99.90;;;;;;5063237;28;20447;-44
2021/03/01 03:31:14;;;;;;;22.10;14.10;;;10.70;99.90;;;;;;5073300;28;20462;-47
2021/03/01 03:33:45;;;;;;;15.57;13.10;;;10.70;99.90;;;;;;5082875;28;20561;-43
2021/03/01 03:36:15;;;;;;;15.40;11.40;;;10.70;99.90;;;;;;5078708;28;20458;-45
2021/03/01 03:38:52;;;;;;;16.70;12.83;;;10.60;99.90;;;;;;5077480;28;20525;-44
2021/03/01 03:41:23;;;;;;;17.63;15.15;;;10.70;99.90;;;;;;5069194;28;20571;-46
2021/03/01 03:43:54;;;;;;;17.30;14.47;;;10.80;99.90;;;;;;5062779;28;20209;-46
2021/03/01 03:46:27;;;;;;;20.50;16.50;;;10.70;99.90;;;;;;5066828;28;20443;-47
2021/03/01 03:48:59;;;;;;;18.40;16.50;;;10.60;99.90;;;;;;5083008;28;20192;-45
2021/03/01 03:51:31;;;;;;;22.13;17.90;;;10.50;99.90;;;;;;5068037;28;20462;-45
2021/03/01 03:54:10;;;;;;;18.88;16.42;;;10.50;99.90;;;;;;5068712;28;20450;-46
2021/03/01 03:56:42;;;;;;;21.15;18.88;;;10.40;99.90;;;;;;5065774;28;20199;-49
2021/03/01 03:59:13;;;;;;;21.95;19.20;;;10.40;99.90;;;;;;5067860;28;20207;-44
2021/03/01 04:01:44;;;;;;;23.23;18.97;;;10.40;99.90;;;;;;5064930;28;20213;-44
2021/03/01 04:04:15;;;;;;;16.65;13.73;;;10.40;99.90;;;;;;5074903;28;20922;-44
2021/03/01 04:06:45;;;;;;;18.20;16.30;;;10.50;99.90;;;;;;5067911;28;20199;-46
2021/03/01 04:09:18;;;;;;;21.90;17.30;;;10.40;99.90;;;;;;5076226;28;20454;-46
2021/03/01 04:11:51;;;;;;;22.02;17.10;;;10.30;99.90;;;;;;5065790;28;20200;-46
2021/03/01 04:14:25;;;;;;;19.45;16.92;;;10.20;99.90;;;;;;5063507;28;20571;-45
2021/03/01 04:16:59;;;;;;;19.10;17.15;;;10.10;99.90;;;;;;5073029;28;20684;-46
2021/03/01 04:19:32;;;;;;;22.60;17.90;;;10.00;99.90;;;;;;5066712;28;20194;-45
2021/03/01 04:22:03;;;;;;;21.52;18.25;;;9.90;99.90;;;;;;5074066;28;20223;-51
2021/03/01 04:24:36;;;;;;;22.77;17.75;;;9.90;99.90;;;;;;5077375;28;20206;-48
2021/03/01 04:27:07;;;;;;;21.10;18.88;;;9.80;99.90;;;;;;5065794;28;20203;-47
2021/03/01 04:29:38;;;;;;;22.50;18.67;;;9.80;99.90;;;;;;5069468;28;20909;-45
2021/03/01 04:32:08;;;;;;;20.25;18.13;;;9.60;99.90;;;;;;5069904;28;20207;-44
2021/03/01 04:34:41;;;;;;;19.98;17.33;;;9.50;99.90;;;;;;5073299;28;20198;-48
2021/03/01 04:37:11;;;;;;;23.25;17.38;;;9.50;99.90;;;;;;5070233;28;20287;-47
2021/03/01 04:39:46;;;;;;;25.08;19.17;;;9.30;99.90;;;;;;5073437;28;20202;-48
2021/03/01 04:42:16;;;;;;;20.25;18.13;;;9.20;99.90;;;;;;5080853;28;20226;-47
2021/03/01 04:45:00;;;;;;;22.25;18.02;;;9.20;99.90;;;;;;5071433;28;20206;-46
2021/03/01 04:47:32;;;;;;;21.50;19.30;;;9.10;99.90;;;;;;5063765;28;20199;-49
2021/03/01 04:50:03;;;;;;;21.15;18.05;;;9.00;99.90;;;;;;5067594;28;20207;-42
2021/03/01 04:52:34;;;;;;;23.58;19.65;;;9.00;99.90;;;;;;5077801;28;20226;-44
2021/03/01 04:55:08;;;;;;;27.58;20.63;;;9.00;99.90;;;;;;5083596;28;20229;-48
2021/03/01 04:57:39;;;;;;;23.48;18.55;;;8.90;99.90;;;;;;5077314;28;20208;-45
2021/03/01 05:00:11;;;;;;;23.20;19.35;;;8.80;99.90;;;;;;5073964;28;20271;-48
2021/03/01 05:02:42;;;;;;;22.10;19.90;;;8.80;99.90;;;;;;5079918;28;20201;-44
2021/03/01 05:05:13;;;;;;;21.27;19.08;;;8.70;99.90;;;;;;5070163;28;20198;-45
2021/03/01 05:07:44;;;;;;;21.73;19.50;;;8.70;99.90;;;;;;5069983;28;20257;-42
2021/03/01 05:10:15;;;;;;;20.60;18.48;;;8.60;99.90;;;;;;5072973;28;20684;-43
2021/03/01 05:12:46;;;;;;;25.13;20.67;;;8.60;99.90;;;;;;5069974;28;20207;-45
2021/03/01 05:15:17;;;;;;;20.67;18.25;;;8.50;99.90;;;;;;5069886;28;20206;-46
2021/03/01 05:18:06;;;;;;;19.58;17.65;;;8.60;99.90;;;;;;5079157;28;20623;-46
2021/03/01 05:20:36;;;;;;;23.77;18.80;;;8.60;99.90;;;;;;5084901;28;20252;-44
2021/03/01 05:23:07;;;;;;;19.08;16.55;;;8.50;99.90;;;;;;5083306;28;20235;-49
2021/03/01 05:25:38;;;;;;;27.83;19.13;;;8.50;99.90;;;;;;5074212;28;20283;-47
2021/03/01 05:28:09;;;;;;;21.42;18.70;;;8.40;99.90;;;;;;5073060;28;20206;-47
2021/03/01 05:30:39;;;;;;;21.80;18.25;;;8.40;99.90;;;;;;5083993;28;20275;-46
2021/03/01 05:33:10;;;;;;;26.13;19.88;;;8.30;99.90;;;;;;5079041;28;20266;-49
2021/03/01 05:35:40;;;;;;;21.95;19.55;;;8.30;99.90;;;;;;5070132;28;20194;-48
2021/03/01 05:38:11;;;;;;;23.88;20.30;;;8.30;99.90;;;;;;5072160;28;20278;-44
2021/03/01 05:40:43;;;;;;;22.25;19.92;;;8.30;99.90;;;;;;5064878;28;20248;-47
2021/03/01 05:43:15;;;;;;;23.10;20.67;;;8.20;99.90;;;;;;5075585;28;20212;-44
2021/03/01 05:45:46;;;;;;;27.27;21.17;;;8.20;99.90;;;;;;5078629;28;20202;-42
2021/03/01 05:48:16;;;;;;;25.92;21.75;;;8.20;99.90;;;;;;5075432;28;20564;-42
2021/03/01 05:50:48;;;;;;;28.92;21.40;;;8.20;99.90;;;;;;5075337;28;20255;-42
2021/03/01 05:53:23;;;;;;;25.65;20.42;;;8.20;99.90;;;;;;5071792;28;20211;-44
2021/03/01 05:55:54;;;;;;;27.75;22.35;;;8.20;99.90;;;;;;5072663;28;20202;-42
2021/03/01 05:58:25;;;;;;;22.80;20.13;;;8.10;99.90;;;;;;5071534;28;20227;-41
2021/03/01 06:01:00;;;;;;;22.27;20.08;;;8.00;99.90;;;;;;5072357;28;20230;-42
2021/03/01 06:03:31;;;;;;;22.55;20.13;;;8.10;99.90;;;;;;5070692;28;20210;-42
2021/03/01 06:06:02;;;;;;;26.25;21.27;;;8.00;99.90;;;;;;5081390;28;20211;-42
2021/03/01 06:08:33;;;;;;;22.85;20.23;;;8.10;99.90;;;;;;5080815;28;20275;-42
2021/03/01 06:11:06;;;;;;;22.85;20.10;;;8.00;99.90;;;;;;5081151;28;20272;-42
2021/03/01 06:13:37;;;;;;;23.67;20.58;;;8.00;99.90;;;;;;5077806;28;20213;-44
2021/03/01 06:16:09;;;;;;;24.35;21.75;;;8.00;99.90;;;;;;5079361;28;20242;-44
2021/03/01 06:18:58;;;;;;;20.58;18.48;;;7.90;99.90;;;;;;5079745;28;20201;-41
2021/03/01 06:21:28;;;;;;;24.80;21.38;;;7.90;99.90;;;;;;5076665;28;20277;-40
2021/03/01 06:23:59;;;;;;;24.10;20.65;;;7.90;99.90;;;;;;5079136;28;20231;-43
2021/03/01 06:26:31;;;;;;;22.63;18.73;;;8.00;99.90;;;;;;5080207;28;20277;-42
2021/03/01 06:29:09;;;;;;;21.83;19.58;;;8.00;99.90;;;;;;5082062;28;20208;-42
2021/03/01 06:31:42;;;;;;;21.77;19.55;;;8.00;99.90;;;;;;5078422;28;20646;-43
2021/03/01 06:34:27;;;;;;;20.90;18.80;;;8.00;99.90;;;;;;5077632;28;20215;-42
2021/03/01 06:37:05;;;;;;;22.77;18.80;;;8.00;99.90;;;;;;5077620;28;20607;-41
2021/03/01 06:39:47;;;;;;;22.48;19.10;;;8.00;99.90;;;;;;5079839;28;20308;-41
2021/03/01 06:42:24;;;;;;;25.70;18.63;;;8.00;99.90;;;;;;5078832;28;20229;-41
2021/03/01 06:45:16;;;;;;;23.73;20.25;;;8.00;99.90;;;;;;5078532;28;20225;-41
2021/03/01 06:47:51;;;;;;;27.80;22.95;;;8.00;99.90;;;;;;5079421;28;20267;-41
2021/03/01 06:50:35;;;;;;;24.42;21.73;;;8.00;99.90;;;;;;5079486;28;20535;-41
2021/03/01 06:53:15;;;;;;;28.17;22.95;;;8.00;99.90;;;;;;5081104;28;20908;-42
2021/03/01 06:56:02;;;;;;;29.73;24.23;;;7.90;99.90;;;;;;5077085;28;20217;-40
2021/03/01 06:58:37;;;;;;;25.95;23.17;;;7.90;99.90;;;;;;5080178;28;20207;-41
2021/03/01 07:01:09;;;;;;;25.65;22.98;;;7.80;99.90;;;;;;5078169;28;20246;-39
2021/03/01 07:03:41;;;;;;;29.25;23.60;;;7.80;99.90;;;;;;5077328;28;20201;-40
2021/03/01 07:06:11;;;;;;;27.35;23.45;;;7.70;99.90;;;;;;5078100;28;20202;-43
2021/03/01 07:08:46;;;;;;;25.05;22.08;;;7.80;99.90;;;;;;5078221;28;21527;-43
2021/03/01 07:11:24;;;;;;;27.17;23.60;;;7.80;99.90;;;;;;5079437;28;20242;-40
2021/03/01 07:13:59;;;;;;;27.75;24.30;;;7.80;99.90;;;;;;5079495;28;20231;-42
2021/03/01 07:16:30;;;;;;;29.25;25.05;;;7.70;99.90;;;;;;5080574;28;20232;-42
2021/03/01 07:19:01;;;;;;;27.80;24.90;;;7.80;99.90;;;;;;5079587;28;20208;-40
2021/03/01 07:21:32;;;;;;;31.27;28.00;;;7.70;99.90;;;;;;5074843;28;20322;-42
2021/03/01 07:24:05;;;;;;;28.42;25.38;;;7.80;99.90;;;;;;5078396;28;20294;-41
2021/03/01 07:26:36;;;;;;;27.15;24.42;;;7.70;99.90;;;;;;5080621;28;20201;-40
2021/03/01 07:29:11;;;;;;;30.65;26.70;;;7.60;99.90;;;;;;5069001;28;20206;-40
2021/03/01 07:31:47;;;;;;;27.83;24.83;;;7.60;99.90;;;;;;5075787;28;20200;-41
2021/03/01 07:34:19;;;;;;;27.17;23.02;;;7.60;99.90;;;;;;5073587;28;20205;-41
2021/03/01 07:36:49;;;;;;;27.48;23.83;;;7.60;99.90;;;;;;5075611;28;20198;-40
2021/03/01 07:39:19;;;;;;;29.52;24.00;;;7.60;99.90;;;;;;5078173;28;20213;-40
2021/03/01 07:41:50;;;;;;;25.05;22.52;;;7.60;99.90;;;;;;5079080;28;20232;-40
2021/03/01 07:44:26;;;;;;;31.33;23.25;;;7.70;99.90;;;;;;5080558;28;20235;-41
2021/03/01 07:46:59;;;;;;;27.45;24.50;;;7.70;99.90;;;;;;5078397;28;20197;-41
2021/03/01 07:49:42;;;;;;;26.88;22.95;;;7.60;99.90;;;;;;5081144;28;20193;-40
2021/03/01 07:52:35;;;;;;;28.92;21.92;;;7.60;99.90;;;;;;5075649;28;20231;-40
2021/03/01 07:55:09;;;;;;;23.35;20.92;;;7.70;99.90;;;;;;5075717;28;20220;-41
2021/03/01 07:57:40;;;;;;;27.52;21.30;;;7.70;99.90;;;;;;5077758;28;20205;-41
2021/03/01 08:00:26;;;;;;;24.10;21.42;;;7.60;99.90;;;;;;5074582;28;20197;-40
2021/03/01 08:02:56;;;;;;;25.60;22.23;;;7.70;99.90;;;;;;5079673;28;20262;-41
2021/03/01 08:05:29;;;;;;;22.75;20.33;;;7.60;99.90;;;;;;5070960;28;20370;-41
2021/03/01 08:08:00;;;;;;;21.95;19.55;;;7.60;99.90;;;;;;5081014;28;20372;-42
2021/03/01 08:10:46;;;;;;;21.27;19.00;;;7.70;99.90;;;;;;5076764;28;20205;-42
2021/03/01 08:13:16;;;;;;;22.08;17.98;;;7.80;99.90;;;;;;5069843;28;20281;-41
2021/03/01 08:15:48;;;;;;;20.20;18.10;;;7.70;99.90;;;;;;5078218;28;20237;-41
2021/03/01 08:18:18;;;;;;;19.42;17.27;;;7.70;99.90;;;;;;5065173;28;20204;-40
2021/03/01 08:21:06;;;;;;;19.48;16.58;;;7.70;99.90;;;;;;5076799;28;20205;-41
2021/03/01 08:23:36;;;;;;;19.88;16.10;;;7.70;99.90;;;;;;5082678;28;20283;-40
2021/03/01 08:26:08;;;;;;;16.85;15.15;;;7.60;99.90;;;;;;5083296;28;20205;-40
2021/03/01 08:28:54;;;;;;;18.58;16.45;;;7.60;99.90;;;;;;5079200;28;20271;-41
2021/03/01 08:31:39;;;;;;;19.25;15.82;;;7.50;99.90;;;;;;5080622;28;20201;-41
2021/03/01 08:34:37;;;;;;;16.38;14.60;;;7.50;99.90;;;;;;5073142;28;20209;-40
2021/03/01 08:37:08;;;;;;;18.40;15.20;;;7.50;99.90;;;;;;5084923;28;20205;-41
2021/03/01 08:40:19;;;;;;;17.17;14.20;;;7.50;99.90;;;;;;5076287;28;20213;-40
2021/03/01 08:42:55;;;;;;;20.52;15.20;;;7.40;99.90;;;;;;5084153;28;20237;-43
2021/03/01 08:45:40;;;;;;;19.88;14.55;;;7.40;99.90;;;;;;5083460;28;20201;-41
2021/03/01 08:48:18;;;;;;;15.85;13.15;;;7.50;99.90;;;;;;5075796;28;20201;-40
2021/03/01 08:50:49;;;;;;;18.52;14.48;;;7.50;99.90;;;;;;5082717;28;20238;-40
2021/03/01 08:53:23;;;;;;;15.82;14.23;;;7.50;99.90;;;;;;5083571;28;20193;-40
2021/03/01 08:55:54;;;;;;;15.98;14.23;;;7.40;99.90;;;;;;5074407;28;20256;-42
2021/03/01 08:58:29;;;;;;;19.20;14.27;;;7.40;99.90;;;;;;5080710;28;20249;-41
2021/03/01 09:01:01;;;;;;;20.75;15.93;;;7.40;99.90;;;;;;5079045;28;20197;-40
2021/03/01 09:03:34;;;;;;;16.17;14.35;;;7.40;99.90;;;;;;5081765;28;20353;-40
2021/03/01 09:06:07;;;;;;;20.02;15.00;;;7.30;99.90;;;;;;5080145;28;20257;-41
2021/03/01 09:08:39;;;;;;;19.38;15.55;;;7.30;99.90;;;;;;5084313;28;20194;-40
2021/03/01 09:11:13;;;;;;;19.02;14.93;;;7.30;99.90;;;;;;5073196;28;20209;-41
2021/03/01 09:13:44;;;;;;;16.67;14.90;;;7.20;99.90;;;;;;5084434;28;20200;-43
2021/03/01 09:16:17;;;;;;;18.90;15.63;;;7.30;99.90;;;;;;5072292;28;20260;-44
2021/03/01 09:18:48;;;;;;;17.88;15.98;;;7.20;99.90;;;;;;5077071;28;20239;-44
2021/03/01 09:21:41;;;;;;;19.25;17.05;;;7.30;99.90;;;;;;5069799;28;20272;-45
2021/03/01 09:24:12;;;;;;;19.48;15.50;;;7.20;99.90;;;;;;5068222;28;20637;-41
2021/03/01 09:26:44;;;;;;;16.98;15.10;;;7.20;99.90;;;;;;5082987;28;20230;-43
2021/03/01 09:29:15;;;;;;;21.02;16.17;;;7.20;99.90;;;;;;5080289;28;20202;-42
2021/03/01 09:31:47;;;;;;;18.48;15.50;;;7.20;99.90;;;;;;5082400;28;20263;-42
2021/03/01 09:34:19;;;;;;;20.13;15.30;;;7.10;99.90;;;;;;5075444;28;20697;-47
2021/03/01 09:37:11;;;;;;;18.50;16.42;;;7.10;99.90;;;;;;5080192;28;20244;-43
2021/03/01 09:39:45;;;;;;;19.25;14.45;;;7.20;99.90;;;;;;5078147;28;20201;-44
2021/03/01 09:42:19;;;;;;;20.38;15.60;;;7.20;99.90;;;;;;5085605;28;20271;-43
2021/03/01 09:44:49;;;;;;;15.35;13.73;;;7.10;99.90;;;;;;5079298;28;20206;-45
2021/03/01 09:47:19;;;;;;;15.38;13.52;;;7.10;99.90;;;;;;5077062;28;20627;-46
2021/03/01 09:49:50;;;;;;;17.42;13.15;;;7.10;99.90;;;;;;5079328;28;20201;-42
2021/03/01 09:52:22;;;;;;;13.40;12.00;;;7.10;99.90;;;;;;5082049;28;20212;-43
2021/03/01 09:54:52;;;;;;;20.08;12.50;;;7.10;99.90;;;;;;5082623;28;20201;-43
2021/03/01 09:57:30;;;;;;;14.40;13.00;;;7.20;99.90;;;;;;5085662;28;20227;-44
2021/03/01 10:00:00;;;;;;;16.02;11.57;;;7.20;99.90;;;;;;5078971;28;20213;-44
2021/03/01 10:02:30;;;;;;;19.35;12.15;;;7.10;99.90;;;;;;5085236;28;20255;-43
2021/03/01 10:05:12;;;;;;;17.75;12.10;;;7.00;99.90;;;;;;5084227;28;20215;-43
2021/03/01 10:07:53;;;;;;;15.07;10.45;;;6.90;99.90;;;;;;5084886;28;20656;-41
2021/03/01 10:10:24;;;;;;;12.68;10.80;;;6.90;99.90;;;;;;5077915;28;20205;-43
2021/03/01 10:12:54;;;;;;;11.90;9.90;;;7.00;99.90;;;;;;5081672;28;20227;-42
2021/03/01 10:15:24;;;;;;;11.23;9.27;;;7.00;99.90;;;;;;5082396;28;20667;-42
2021/03/01 10:18:06;;;;;;;14.27;8.55;;;7.00;99.90;;;;;;5082104;28;20202;-43
2021/03/01 10:20:48;;;;;;;9.35;8.35;;;7.00;99.90;;;;;;5082677;28;20207;-43
2021/03/01 10:23:40;;;;;;;12.77;8.93;;;6.90;99.90;;;;;;5082443;28;20236;-42
2021/03/01 10:26:16;;;;;;;10.77;8.32;;;6.80;99.90;;;;;;5081541;28;20682;-41
2021/03/01 10:28:55;;;;;;;10.52;8.20;;;6.70;99.90;;;;;;5084190;28;20265;-43
2021/03/01 10:31:27;;;;;;;9.02;7.75;;;6.70;99.90;;;;;;5083293;28;20342;-45
2021/03/01 10:34:03;;;;;;;10.52;7.90;;;6.70;99.90;;;;;;5082666;28;20300;-44
2021/03/01 10:36:36;;;;;;;10.35;7.95;;;6.80;99.90;;;;;;5082593;28;20201;-41
2021/03/01 10:39:09;;;;;;;9.00;7.05;;;6.70;99.90;;;;;;5082108;28;20209;-42
2021/03/01 10:41:44;;;;;;;11.13;8.75;;;6.80;99.90;;;;;;5082885;28;20220;-41
2021/03/01 10:44:15;;;;;;;11.07;7.30;;;6.70;99.90;;;;;;5082180;28;20201;-43
2021/03/01 10:46:47;;;;;;;9.40;7.30;;;6.70;99.90;;;;;;5081659;28;20201;-40
2021/03/01 10:49:24;;;;;;;9.80;7.32;;;6.70;99.90;;;;;;5082130;28;20231;-40
2021/03/01 10:51:56;;;;;;;11.65;7.57;;;6.70;99.90;;;;;;5081566;28;20197;-40
2021/03/01 10:54:27;;;;;;;14.25;8.07;;;6.60;99.90;;;;;;5079795;28;20202;-43
2021/03/01 10:56:57;;;;;;;13.98;7.53;;;6.60;99.90;;;;;;5075972;28;20223;-42
2021/03/01 10:59:27;;;;;;;10.40;6.90;;;6.60;99.90;;;;;;5079255;28;20205;-39
2021/03/01 11:01:57;;;;;;;10.77;9.00;;;6.60;99.90;;;;;;5078095;28;20237;-41
2021/03/01 11:04:28;;;;;;;9.75;7.72;;;6.60;99.90;;;;;;5082994;28;20717;-40
2021/03/01 11:06:59;;;;;;;9.60;7.00;;;6.60;99.90;;;;;;5072848;28;20198;-40
2021/03/01 11:09:29;;;;;;;10.20;7.63;;;6.60;99.90;;;;;;5075759;28;20267;-41
2021/03/01 11:11:59;;;;;;;8.88;7.00;;;6.60;99.90;;;;;;5083287;28;20201;-40
2021/03/01 11:14:29;;;;;;;9.82;6.63;;;6.60;99.90;;;;;;5081331;28;20205;-40
2021/03/01 11:17:00;;;;;;;9.82;7.30;;;6.60;99.90;;;;;;5078135;28;20378;-39
2021/03/01 11:19:31;;;;;;;17.27;7.55;;;6.50;99.90;;;;;;5080406;28;20208;-40
2021/03/01 11:22:02;;;;;;;6.95;6.03;;;6.40;99.90;;;;;;5079695;28;20229;-39
2021/03/01 11:24:32;;;;;;;9.43;6.72;;;6.50;99.90;;;;;;5078132;28;20203;-40
2021/03/01 11:27:02;;;;;;;12.25;7.13;;;6.50;99.90;;;;;;5082064;28;20231;-40
2021/03/01 11:29:33;;;;;;;7.90;6.35;;;6.50;99.90;;;;;;5075394;28;20223;-40
2021/03/01 11:32:04;;;;;;;9.02;7.32;;;6.40;99.90;;;;;;5081689;28;20205;-40
2021/03/01 11:34:34;;;;;;;7.45;6.47;;;6.40;99.90;;;;;;5078724;28;20293;-40
2021/03/01 11:37:06;;;;;;;8.00;6.72;;;6.40;99.90;;;;;;5076838;28;20205;-39
2021/03/01 11:39:36;;;;;;;7.97;6.68;;;6.40;99.90;;;;;;5081061;28;20201;-40
2021/03/01 11:42:06;;;;;;;9.88;6.47;;;6.40;99.90;;;;;;5081131;28;20244;-41
2021/03/01 11:44:36;;;;;;;8.30;6.63;;;6.40;99.90;;;;;;5078866;28;20208;-41
2021/03/01 11:47:06;;;;;;;9.90;6.00;;;6.50;99.90;;;;;;5080380;28;20228;-42
2021/03/01 11:49:36;;;;;;;8.80;6.40;;;6.40;99.90;;;;;;5081761;28;20262;-40
2021/03/01 11:52:08;;;;;;;7.43;5.60;;;6.30;99.90;;;;;;5082598;28;20638;-40
2021/03/01 11:54:38;;;;;;;8.60;5.57;;;6.30;99.90;;;;;;5078143;28;20202;-40
2021/03/01 11:57:08;;;;;;;6.47;5.60;;;6.30;99.90;;;;;;5081613;28;20209;-42
2021/03/01 11:59:38;;;;;;;9.00;5.00;;;6.20;99.90;;;;;;5076202;28;20269;-40
2021/03/01 12:02:08;;;;;;;5.40;4.80;;;6.20;99.90;;;;;;5074437;28;20221;-40
2021/03/01 12:04:38;;;;;;;6.40;5.32;;;6.30;99.90;;;;;;5080054;28;20281;-40
2021/03/01 12:07:10;;;;;;;6.65;5.95;;;6.30;99.90;;;;;;5075162;28;20590;-40
2021/03/01 12:09:40;;;;;;;7.20;6.10;;;6.20;99.90;;;;;;5081001;28;20197;-39
2021/03/01 12:12:10;;;;;;;7.38;5.50;;;6.10;99.90;;;;;;5080255;28;20275;-40
2021/03/01 12:14:40;;;;;;;6.57;5.88;;;6.00;99.90;;;;;;5079945;28;21199;-40
2021/03/01 12:17:11;;;;;;;8.75;6.53;;;6.00;99.90;;;;;;5082202;28;20233;-40
2021/03/01 12:19:41;;;;;;;9.13;5.90;;;6.00;99.90;;;;;;5079598;28;20206;-39
2021/03/01 12:22:12;;;;;;;7.47;6.15;;;5.90;99.90;;;;;;5081338;28;20232;-40
2021/03/01 12:24:42;;;;;;;10.73;6.13;;;5.90;99.90;;;;;;5079065;28;20209;-40
2021/03/01 12:27:12;;;;;;;8.07;6.20;;;5.90;99.90;;;;;;5076863;28;20643;-40
2021/03/01 12:29:42;;;;;;;9.18;6.43;;;5.80;99.90;;;;;;5080483;28;20290;-40
2021/03/01 12:32:12;;;;;;;8.25;6.50;;;5.70;99.90;;;;;;5080650;28;20247;-40
2021/03/01 12:34:42;;;;;;;6.85;5.45;;;5.60;99.90;;;;;;5074098;28;20210;-40
2021/03/01 12:37:13;;;;;;;7.82;6.68;;;5.50;99.90;;;;;;5072134;28;20220;-40
2021/03/01 12:39:44;;;;;;;7.63;5.53;;;5.50;99.90;;;;;;5076724;28;20201;-40
2021/03/01 12:42:14;;;;;;;9.88;7.07;;;5.40;99.90;;;;;;5078860;28;20255;-40
2021/03/01 12:44:44;;;;;;;11.88;6.47;;;5.40;99.90;;;;;;5077478;28;20674;-39
2021/03/01 12:47:14;;;;;;;8.90;6.22;;;5.30;99.90;;;;;;5070748;28;20259;-40
2021/03/01 12:49:44;;;;;;;11.20;6.82;;;5.30;99.90;;;;;;5068756;28;20212;-39
2021/03/01 12:52:15;;;;;;;7.00;5.70;;;5.30;99.90;;;;;;5077901;28;20236;-39
2021/03/01 12:54:45;;;;;;;9.00;6.28;;;5.30;99.90;;;;;;5075628;28;20235;-40
2021/03/01 12:57:15;;;;;;;9.35;6.43;;;5.30;99.90;;;;;;5080831;28;20282;-40
2021/03/01 12:59:45;;;;;;;7.72;6.40;;;5.30;99.90;;;;;;5077952;28;20206;-40
2021/03/01 13:02:15;;;;;;;9.85;6.55;;;5.30;99.90;;;;;;5073328;28;20226;-39
2021/03/01 13:04:45;;;;;;;6.63;5.85;;;5.30;99.90;;;;;;5076764;28;20367;-40
2021/03/01 13:07:16;;;;;;;7.88;6.55;;;5.30;99.90;;;;;;5079429;28;20209;-40
2021/03/01 13:09:46;;;;;;;8.02;7.07;;;5.30;99.90;;;;;;5073751;28;20236;-40